Time;durP1;ratioP1;P1;durP2;ratioP2;P2;SDS_P1;SDS_P2;PMS_P1;PMS_P2;Temp;Humidity;BMP_temperature;BMP_pressure;BME280_temperature;BME280_humidity;BME280_pressure;Samples;Min_cycle;Max_cycle;Signal;HPM_P1;HPM_P2
2023/01/28 00:00:17;;;;;;;21.80;13.57;;;;;;;;;;5111982;28;20316;-76
2023/01/28 00:02:44;;;;;;;18.73;12.20;;;;;;;;;;5111854;28;20634;-77
2023/01/28 00:05:12;;;;;;;18.97;12.90;;;;;;;;;;5112049;28;20243;-77
2023/01/28 00:07:39;;;;;;;18.63;11.43;;;;;;;;;;5111877;28;20200;-77
2023/01/28 00:10:06;;;;;;;16.23;11.80;;;;;;;;;;5111907;28;20287;-76
2023/01/28 00:12:35;;;;;;;18.60;11.80;;;;;;;;;;5111554;28;20284;-77
2023/01/28 00:15:02;;;;;;;16.93;11.03;;;;;;;;;;5111732;28;20217;-77
2023/01/28 00:17:29;;;;;;;17.73;11.20;;;;;;;;;;5111175;28;20300;-76
2023/01/28 00:19:57;;;;;;;18.57;11.87;;;;;;;;;;5111519;28;20320;-77
2023/01/28 00:22:24;;;;;;;18.27;11.67;;;;;;;;;;5111756;28;20205;-77
2023/01/28 00:24:51;;;;;;;16.10;11.80;;;;;;;;;;5111216;28;20283;-76
2023/01/28 00:27:19;;;;;;;17.87;11.17;;;;;;;;;;5113055;28;20330;-77
2023/01/28 00:29:47;;;;;;;20.37;12.27;;;;;;;;;;5115820;28;20237;-77
2023/01/28 00:32:14;;;;;;;18.70;11.67;;;;;;;;;;5115734;28;20300;-77
2023/01/28 00:34:42;;;;;;;16.33;11.47;;;;;;;;;;5115930;28;20261;-77
2023/01/28 00:37:09;;;;;;;15.37;11.20;;;;;;;;;;5115587;28;20224;-77
2023/01/28 00:39:37;;;;;;;16.13;11.00;;;;;;;;;;5115781;28;20252;-76
2023/01/28 00:42:04;;;;;;;16.10;11.70;;;;;;;;;;5115794;28;20284;-77
2023/01/28 00:44:31;;;;;;;17.53;11.07;;;;;;;;;;5115949;28;20300;-77
2023/01/28 00:47:00;;;;;;;16.90;11.17;;;;;;;;;;5115674;28;20292;-76
2023/01/28 00:49:27;;;;;;;16.73;11.17;;;;;;;;;;5115669;28;20212;-76
2023/01/28 00:51:55;;;;;;;16.90;11.37;;;;;;;;;;5114905;28;20242;-77
2023/01/28 00:54:22;;;;;;;18.20;11.60;;;;;;;;;;5115146;28;20223;-77
2023/01/28 00:56:49;;;;;;;18.03;11.67;;;;;;;;;;5115097;27;20736;-76
2023/01/28 00:59:16;;;;;;;17.40;11.07;;;;;;;;;;5115254;28;20691;-76
2023/01/28 01:01:43;;;;;;;19.07;12.00;;;;;;;;;;5115257;28;20791;-77
2023/01/28 01:04:12;;;;;;;16.77;11.13;;;;;;;;;;5115039;28;20635;-76
2023/01/28 01:06:40;;;;;;;18.47;11.20;;;;;;;;;;5114924;28;20292;-77
2023/01/28 01:09:09;;;;;;;18.50;10.67;;;;;;;;;;5115430;28;20207;-77
2023/01/28 01:11:36;;;;;;;17.57;10.80;;;;;;;;;;5115118;28;20300;-77
2023/01/28 01:14:04;;;;;;;18.00;11.10;;;;;;;;;;5115045;28;20232;-75
2023/01/28 01:16:32;;;;;;;17.87;11.00;;;;;;;;;;5114253;28;20287;-77
2023/01/28 01:18:59;;;;;;;17.53;10.37;;;;;;;;;;5113298;28;20197;-77
2023/01/28 01:21:29;;;;;;;18.53;11.03;;;;;;;;;;5113843;28;20232;-77
2023/01/28 01:23:56;;;;;;;15.83;9.87;;;;;;;;;;5114407;28;20292;-76
2023/01/28 01:26:24;;;;;;;16.33;10.13;;;;;;;;;;5115066;28;20284;-76
2023/01/28 01:28:51;;;;;;;14.57;9.23;;;;;;;;;;5114486;28;20232;-76
2023/01/28 01:31:20;;;;;;;13.80;8.80;;;;;;;;;;5114658;28;20286;-76
2023/01/28 01:33:48;;;;;;;15.03;8.83;;;;;;;;;;5114859;27;20228;-77
2023/01/28 01:36:18;;;;;;;15.40;8.70;;;;;;;;;;5114350;28;20776;-76
2023/01/28 01:38:47;;;;;;;16.27;9.13;;;;;;;;;;5114436;28;20574;-76
2023/01/28 01:41:22;;;;;;;16.97;9.43;;;;;;;;;;5114001;28;20255;-77
2023/01/28 01:43:50;;;;;;;15.13;9.57;;;;;;;;;;5114471;28;20232;-76
2023/01/28 01:46:19;;;;;;;16.97;9.97;;;;;;;;;;5115028;28;20286;-77
2023/01/28 01:48:46;;;;;;;15.77;9.10;;;;;;;;;;5114409;28;20290;-77
2023/01/28 01:51:15;;;;;;;14.70;9.50;;;;;;;;;;5113895;28;20230;-76
2023/01/28 01:53:44;;;;;;;16.27;9.50;;;;;;;;;;5114387;28;20226;-77
2023/01/28 01:56:15;;;;;;;16.60;9.63;;;;;;;;;;5114414;28;20243;-77
2023/01/28 01:58:44;;;;;;;14.67;9.87;;;;;;;;;;5114047;28;20770;-77
2023/01/28 02:01:12;;;;;;;15.90;9.73;;;;;;;;;;5114161;27;20398;-77
2023/01/28 02:03:41;;;;;;;15.20;9.87;;;;;;;;;;5114121;28;20232;-77
2023/01/28 02:06:09;;;;;;;13.03;9.23;;;;;;;;;;5114108;28;20238;-76
2023/01/28 02:08:36;;;;;;;14.13;9.33;;;;;;;;;;5114033;28;20295;-77
2023/01/28 02:11:05;;;;;;;15.80;9.80;;;;;;;;;;5107864;28;20282;-76
2023/01/28 02:13:35;;;;;;;14.73;9.30;;;;;;;;;;5093113;28;20729;-76
2023/01/28 02:16:03;;;;;;;16.07;9.90;;;;;;;;;;5093426;28;20229;-76
2023/01/28 02:18:32;;;;;;;13.73;9.10;;;;;;;;;;5093624;28;20291;-76
2023/01/28 02:21:07;;;;;;;13.47;8.80;;;;;;;;;;5093034;28;20313;-77
2023/01/28 02:23:51;;;;;;;14.53;9.70;;;;;;;;;;5093251;28;20196;-76
2023/01/28 02:26:33;;;;;;;13.23;8.87;;;;;;;;;;5093360;28;20201;-77
2023/01/28 02:29:03;;;;;;;13.47;9.60;;;;;;;;;;5092808;28;20332;-77
2023/01/28 02:31:33;;;;;;;14.60;9.10;;;;;;;;;;5093325;28;20219;-77
2023/01/28 02:34:03;;;;;;;14.27;9.17;;;;;;;;;;5092539;28;20772;-77
2023/01/28 02:36:35;;;;;;;14.80;9.17;;;;;;;;;;5093359;28;20552;-77
2023/01/28 02:39:03;;;;;;;14.63;9.17;;;;;;;;;;5093174;28;20279;-77
2023/01/28 02:41:33;;;;;;;14.90;9.13;;;;;;;;;;5092716;28;20319;-76
2023/01/28 02:44:03;;;;;;;14.97;8.93;;;;;;;;;;5092681;28;20295;-76
2023/01/28 02:49:24;;;;;;;15.30;9.20;;;;;;;;;;5091723;28;20261;-76
2023/01/28 02:51:57;;;;;;;15.13;8.80;;;;;;;;;;5092872;28;20218;-77
2023/01/28 02:54:30;;;;;;;13.10;8.67;;;;;;;;;;5092595;28;20298;-77
2023/01/28 02:57:02;;;;;;;12.67;8.47;;;;;;;;;;5092762;28;20551;-76
2023/01/28 02:59:32;;;;;;;13.27;8.10;;;;;;;;;;5092570;28;20292;-76
2023/01/28 03:02:02;;;;;;;13.00;7.57;;;;;;;;;;5092213;28;20246;-76
2023/01/28 03:04:30;;;;;;;14.13;8.33;;;;;;;;;;5092339;28;20222;-76
2023/01/28 03:07:03;;;;;;;13.53;8.53;;;;;;;;;;5092561;28;20751;-76
2023/01/28 03:09:30;;;;;;;15.70;8.80;;;;;;;;;;5092289;28;20200;-76
2023/01/28 03:37:00;;;;;;;13.87;9.07;;;;;;;;;;5112440;28;20202;-76
2023/01/28 03:39:28;;;;;;;16.60;9.60;;;;;;;;;;5112279;28;20206;-76
2023/01/28 03:41:57;;;;;;;21.00;9.77;;;;;;;;;;5112176;28;20265;-77
2023/01/28 03:47:11;;;;;;;14.03;9.70;;;;;;;;;;5111513;28;20203;-76
2023/01/28 03:49:39;;;;;;;15.03;9.90;;;;;;;;;;5112255;28;20282;-77
2023/01/28 03:52:06;;;;;;;15.47;10.40;;;;;;;;;;5112079;28;20231;-76
2023/01/28 03:54:33;;;;;;;16.93;10.53;;;;;;;;;;5112178;28;20291;-76
2023/01/28 03:57:01;;;;;;;17.43;10.57;;;;;;;;;;5112290;28;20291;-76
2023/01/28 03:59:28;;;;;;;18.13;10.80;;;;;;;;;;5111662;28;20252;-77
2023/01/28 04:01:55;;;;;;;16.70;10.20;;;;;;;;;;5110997;28;20320;-76
2023/01/28 04:04:24;;;;;;;19.67;10.87;;;;;;;;;;5111872;28;20224;-77
2023/01/28 04:06:51;;;;;;;15.10;10.80;;;;;;;;;;5112227;28;20196;-76
2023/01/28 04:09:18;;;;;;;14.77;10.07;;;;;;;;;;5111861;28;20225;-76
2023/01/28 04:11:46;;;;;;;15.87;9.90;;;;;;;;;;5111995;28;20236;-76
2023/01/28 04:14:14;;;;;;;18.17;10.50;;;;;;;;;;5111821;28;20283;-76
2023/01/28 04:16:41;;;;;;;17.17;10.67;;;;;;;;;;5111315;28;20204;-76
2023/01/28 04:19:08;;;;;;;16.93;10.60;;;;;;;;;;5111932;28;20196;-77
2023/01/28 04:21:37;;;;;;;17.30;11.03;;;;;;;;;;5111721;28;20321;-77
2023/01/28 04:24:04;;;;;;;17.10;10.57;;;;;;;;;;5111914;28;20283;-76
2023/01/28 04:26:32;;;;;;;16.30;10.07;;;;;;;;;;5111358;28;20233;-76
2023/01/28 04:28:59;;;;;;;18.70;11.00;;;;;;;;;;5111190;28;20653;-76
2023/01/28 04:31:26;;;;;;;18.80;10.23;;;;;;;;;;5111177;28;20282;-77
2023/01/28 04:33:53;;;;;;;15.40;10.03;;;;;;;;;;5112024;28;20283;-76
2023/01/28 04:36:20;;;;;;;16.37;10.07;;;;;;;;;;5111919;28;20289;-77
2023/01/28 04:38:49;;;;;;;15.93;10.03;;;;;;;;;;5111563;28;20222;-77
2023/01/28 04:41:16;;;;;;;15.00;9.80;;;;;;;;;;5111244;28;20808;-76
2023/01/28 04:43:43;;;;;;;16.07;9.47;;;;;;;;;;5111777;28;20215;-76
2023/01/28 04:46:10;;;;;;;16.03;9.17;;;;;;;;;;5111591;28;20620;-76
2023/01/28 04:48:37;;;;;;;14.90;9.27;;;;;;;;;;5111343;28;20656;-76
2023/01/28 04:51:05;;;;;;;16.47;9.63;;;;;;;;;;5111593;28;20280;-76
2023/01/28 04:53:32;;;;;;;14.50;9.20;;;;;;;;;;5111098;28;20748;-76
2023/01/28 04:56:00;;;;;;;13.73;8.80;;;;;;;;;;5111229;28;20742;-76
2023/01/28 04:58:28;;;;;;;14.33;9.47;;;;;;;;;;5110635;28;20240;-76
2023/01/28 05:00:56;;;;;;;16.53;9.90;;;;;;;;;;5111521;28;20282;-76
2023/01/28 05:03:23;;;;;;;18.07;9.97;;;;;;;;;;5111431;28;20202;-76
2023/01/28 05:05:50;;;;;;;14.50;9.80;;;;;;;;;;5111429;28;20257;-76
2023/01/28 05:08:18;;;;;;;13.60;9.03;;;;;;;;;;5111315;28;20280;-76
2023/01/28 05:10:45;;;;;;;13.07;9.07;;;;;;;;;;5111512;28;20291;-76
2023/01/28 05:13:14;;;;;;;12.93;8.80;;;;;;;;;;5112540;28;20277;-77
2023/01/28 05:15:41;;;;;;;15.00;9.20;;;;;;;;;;5114964;28;20200;-76
2023/01/28 05:18:08;;;;;;;14.67;9.63;;;;;;;;;;5115539;28;20285;-77
2023/01/28 05:20:35;;;;;;;17.93;9.97;;;;;;;;;;5115048;28;20288;-75
2023/01/28 05:23:03;;;;;;;14.90;9.23;;;;;;;;;;5114882;28;20316;-77
2023/01/28 05:25:30;;;;;;;14.50;8.97;;;;;;;;;;5114557;28;20295;-77
2023/01/28 05:27:57;;;;;;;17.53;10.10;;;;;;;;;;5114359;28;20323;-76
2023/01/28 05:30:25;;;;;;;16.43;10.20;;;;;;;;;;5115090;28;20287;-77
2023/01/28 05:32:56;;;;;;;15.97;9.77;;;;;;;;;;5114808;28;20760;-76
2023/01/28 05:35:23;;;;;;;15.37;9.83;;;;;;;;;;5114395;28;20201;-77
2023/01/28 05:37:50;;;;;;;14.07;9.63;;;;;;;;;;5114766;28;20283;-77
2023/01/28 05:40:17;;;;;;;15.13;9.63;;;;;;;;;;5114953;28;20303;-76
2023/01/28 05:42:45;;;;;;;15.40;9.40;;;;;;;;;;5114202;28;20335;-76
2023/01/28 05:45:12;;;;;;;12.77;9.03;;;;;;;;;;5114439;28;20285;-77
2023/01/28 05:47:40;;;;;;;14.13;9.37;;;;;;;;;;5114607;28;20618;-76
2023/01/28 05:50:08;;;;;;;13.27;9.07;;;;;;;;;;5114769;28;20304;-77
2023/01/28 05:52:36;;;;;;;14.03;8.87;;;;;;;;;;5113680;28;20285;-77
2023/01/28 05:55:03;;;;;;;13.10;8.83;;;;;;;;;;5114166;28;20228;-77
2023/01/28 05:57:30;;;;;;;14.23;9.40;;;;;;;;;;5114491;28;20224;-76
2023/01/28 05:59:57;;;;;;;13.67;9.37;;;;;;;;;;5114185;28;20292;-77
2023/01/28 06:02:24;;;;;;;13.00;8.83;;;;;;;;;;5113731;28;20325;-77
2023/01/28 06:04:53;;;;;;;15.23;8.90;;;;;;;;;;5114081;28;20296;-76
2023/01/28 06:07:20;;;;;;;15.50;9.23;;;;;;;;;;5113924;28;20280;-77
2023/01/28 06:09:47;;;;;;;14.40;9.67;;;;;;;;;;5113659;28;20328;-77
2023/01/28 06:12:15;;;;;;;15.23;9.30;;;;;;;;;;5113970;28;20233;-76
2023/01/28 06:14:42;;;;;;;15.20;9.30;;;;;;;;;;5113993;28;20232;-75
2023/01/28 06:17:09;;;;;;;14.03;9.03;;;;;;;;;;5113888;28;20291;-77
2023/01/28 06:19:36;;;;;;;15.00;8.63;;;;;;;;;;5113592;28;20750;-77
2023/01/28 06:22:05;;;;;;;13.83;8.57;;;;;;;;;;5113936;28;20252;-75
2023/01/28 06:24:32;;;;;;;14.57;9.03;;;;;;;;;;5112608;28;20198;-76
2023/01/28 06:27:00;;;;;;;16.97;8.83;;;;;;;;;;5113072;28;20292;-76
2023/01/28 06:29:27;;;;;;;13.87;8.67;;;;;;;;;;5113363;28;20744;-77
2023/01/28 06:31:55;;;;;;;15.10;9.70;;;;;;;;;;5113647;28;20228;-76
2023/01/28 06:34:22;;;;;;;14.87;8.70;;;;;;;;;;5114039;28;20220;-76
2023/01/28 06:36:49;;;;;;;14.83;8.67;;;;;;;;;;5113260;28;20287;-76
2023/01/28 06:39:20;;;;;;;14.20;8.67;;;;;;;;;;5113273;28;20207;-76
2023/01/28 06:41:47;;;;;;;15.47;8.60;;;;;;;;;;5112869;28;20236;-77
2023/01/28 06:44:14;;;;;;;14.80;8.73;;;;;;;;;;5113440;28;20286;-76
2023/01/28 06:46:41;;;;;;;14.70;9.23;;;;;;;;;;5113150;28;20720;-77
2023/01/28 06:49:08;;;;;;;13.07;8.53;;;;;;;;;;5112923;28;20215;-76
2023/01/28 06:51:36;;;;;;;15.73;9.27;;;;;;;;;;5112938;28;20235;-76
2023/01/28 06:54:03;;;;;;;15.10;8.73;;;;;;;;;;5113213;28;20648;-76
2023/01/28 06:56:31;;;;;;;14.90;9.13;;;;;;;;;;5112611;28;20700;-76
2023/01/28 06:58:59;;;;;;;15.67;9.23;;;;;;;;;;5113165;28;20292;-77
2023/01/28 07:01:26;;;;;;;16.00;9.73;;;;;;;;;;5112841;28;20227;-77
2023/01/28 07:03:53;;;;;;;15.13;9.10;;;;;;;;;;5112679;28;20200;-76
2023/01/28 07:06:20;;;;;;;15.70;9.27;;;;;;;;;;5112448;28;20289;-77
2023/01/28 07:08:47;;;;;;;14.83;9.63;;;;;;;;;;5112705;28;20692;-76
2023/01/28 07:11:15;;;;;;;16.93;10.30;;;;;;;;;;5112618;28;20215;-76
2023/01/28 07:13:46;;;;;;;16.30;9.90;;;;;;;;;;5112476;27;20285;-76
2023/01/28 07:16:13;;;;;;;17.53;9.83;;;;;;;;;;5112497;28;20605;-76
2023/01/28 07:18:40;;;;;;;17.70;10.07;;;;;;;;;;5112322;28;20247;-77
2023/01/28 07:21:07;;;;;;;15.50;9.97;;;;;;;;;;5112168;28;20227;-77
2023/01/28 07:23:34;;;;;;;16.10;10.00;;;;;;;;;;5112664;28;20316;-75
2023/01/28 07:26:02;;;;;;;15.43;9.57;;;;;;;;;;5112201;28;20235;-76
2023/01/28 07:28:29;;;;;;;15.93;10.13;;;;;;;;;;5111979;28;20314;-77
2023/01/28 07:30:58;;;;;;;19.07;11.70;;;;;;;;;;5112579;28;20287;-76
2023/01/28 07:33:25;;;;;;;18.03;10.33;;;;;;;;;;5112264;28;20289;-76
2023/01/28 07:35:52;;;;;;;17.07;11.03;;;;;;;;;;5112472;28;20290;-74
2023/01/28 07:38:20;;;;;;;18.30;10.87;;;;;;;;;;5112064;28;20285;-75
2023/01/28 07:40:47;;;;;;;17.87;10.73;;;;;;;;;;5111943;28;20290;-75
2023/01/28 07:43:14;;;;;;;19.73;11.27;;;;;;;;;;5111938;28;20266;-76
2023/01/28 07:45:42;;;;;;;19.23;10.73;;;;;;;;;;5111992;28;20251;-75
2023/01/28 07:48:12;;;;;;;20.53;12.23;;;;;;;;;;5112350;28;20293;-76
2023/01/28 07:50:39;;;;;;;21.40;11.50;;;;;;;;;;5111927;28;20246;-75
2023/01/28 07:53:07;;;;;;;20.13;12.17;;;;;;;;;;5111591;28;20206;-76
2023/01/28 07:55:35;;;;;;;22.93;11.57;;;;;;;;;;5111975;28;20199;-76
2023/01/28 07:58:03;;;;;;;20.53;12.27;;;;;;;;;;5111893;28;20591;-75
2023/01/28 08:00:31;;;;;;;19.60;12.30;;;;;;;;;;5111676;28;20283;-76
2023/01/28 08:02:59;;;;;;;21.37;12.53;;;;;;;;;;5111703;28;20236;-76
2023/01/28 08:05:31;;;;;;;22.97;13.03;;;;;;;;;;5111918;28;20300;-76
2023/01/28 08:07:58;;;;;;;21.80;12.60;;;;;;;;;;5111371;28;20481;-76
2023/01/28 08:10:26;;;;;;;21.93;13.60;;;;;;;;;;5111926;28;20287;-76
2023/01/28 08:12:54;;;;;;;23.03;13.33;;;;;;;;;;5103900;28;20230;-75
2023/01/28 08:15:21;;;;;;;21.57;13.80;;;;;;;;;;5100330;28;20667;-77
2023/01/28 08:17:48;;;;;;;22.10;13.87;;;;;;;;;;5091202;28;20220;-76
2023/01/28 08:20:16;;;;;;;21.63;13.43;;;;;;;;;;5091927;28;20298;-76
2023/01/28 08:22:44;;;;;;;22.67;13.97;;;;;;;;;;5091000;28;20254;-76
2023/01/28 08:25:12;;;;;;;20.67;13.60;;;;;;;;;;5091158;28;20294;-76
2023/01/28 08:27:39;;;;;;;24.63;13.17;;;;;;;;;;5091216;28;20687;-76
2023/01/28 08:30:08;;;;;;;20.73;14.13;;;;;;;;;;5091572;28;20279;-76
2023/01/28 08:32:35;;;;;;;21.60;13.57;;;;;;;;;;5091462;28;20226;-75
2023/01/28 08:35:02;;;;;;;23.67;13.60;;;;;;;;;;5091282;28;20239;-76
2023/01/28 08:37:29;;;;;;;22.27;13.83;;;;;;;;;;5091031;28;20302;-76
2023/01/28 08:39:58;;;;;;;20.30;13.13;;;;;;;;;;5091747;28;20290;-76
2023/01/28 08:42:25;;;;;;;23.80;14.23;;;;;;;;;;5091166;28;20312;-76
2023/01/28 08:44:52;;;;;;;23.20;13.87;;;;;;;;;;5091253;28;20196;-76
2023/01/28 08:47:19;;;;;;;22.57;14.03;;;;;;;;;;5091354;28;20287;-76
2023/01/28 08:49:47;;;;;;;22.77;14.60;;;;;;;;;;5111226;28;20283;-76
2023/01/28 08:52:14;;;;;;;22.27;14.97;;;;;;;;;;5115056;28;20717;-77
2023/01/28 08:54:41;;;;;;;21.90;14.70;;;;;;;;;;5115399;28;20682;-76
2023/01/28 08:57:10;;;;;;;18.67;13.17;;;;;;;;;;5115317;28;20274;-77
2023/01/28 08:59:39;;;;;;;18.03;12.80;;;;;;;;;;5115534;28;20562;-76
2023/01/28 09:02:07;;;;;;;15.53;12.47;;;;;;;;;;5108426;28;20286;-76
2023/01/28 09:04:34;;;;;;;14.77;11.80;;;;;;;;;;5107099;27;20230;-77
2023/01/28 09:07:01;;;;;;;13.77;12.13;;;;;;;;;;5118489;27;20285;-77
2023/01/28 09:09:33;;;;;;;17.70;12.93;;;;;;;;;;5115456;27;20233;-77
2023/01/28 09:12:01;;;;;;;16.73;12.40;;;;;;;;;;5111449;28;20198;-77
2023/01/28 09:14:29;;;;;;;15.67;12.33;;;;;;;;;;5110961;28;20284;-77
2023/01/28 09:16:56;;;;;;;18.40;13.60;;;;;;;;;;5112625;28;20221;-76
2023/01/28 09:19:28;;;;;;;20.00;13.13;;;;;;;;;;5112193;28;21149;-77
2023/01/28 09:21:55;;;;;;;16.63;13.00;;;;;;;;;;5112234;28;20217;-75
2023/01/28 09:24:22;;;;;;;16.93;12.90;;;;;;;;;;5111549;28;20281;-76
2023/01/28 09:26:49;;;;;;;18.20;13.37;;;;;;;;;;5110742;28;20722;-75
2023/01/28 09:29:17;;;;;;;15.87;12.53;;;;;;;;;;5111243;28;20285;-74
2023/01/28 09:31:45;;;;;;;16.47;12.47;;;;;;;;;;5110248;28;20205;-75
2023/01/28 09:34:12;;;;;;;14.40;12.00;;;;;;;;;;5113330;28;20186;-76
2023/01/28 09:36:40;;;;;;;15.57;11.53;;;;;;;;;;5114843;27;20201;-77
2023/01/28 09:39:07;;;;;;;16.73;12.77;;;;;;;;;;5112831;28;20277;-77
2023/01/28 09:41:40;;;;;;;14.57;11.97;;;;;;;;;;5112900;28;20190;-77
2023/01/28 09:44:14;;;;;;;14.23;12.70;;;;;;;;;;5110974;28;20252;-76
2023/01/28 09:46:44;;;;;;;15.87;12.97;;;;;;;;;;5113726;28;20285;-76
2023/01/28 09:49:18;;;;;;;15.10;12.63;;;;;;;;;;5112649;28;20190;-77
2023/01/28 09:51:48;;;;;;;16.10;13.27;;;;;;;;;;5110875;28;20278;-77
2023/01/28 09:54:20;;;;;;;16.90;13.63;;;;;;;;;;5114921;27;20292;-77
2023/01/28 09:56:49;;;;;;;15.13;13.53;;;;;;;;;;5111077;28;20698;-77
2023/01/28 09:59:19;;;;;;;17.47;13.47;;;;;;;;;;5113522;28;20193;-77
2023/01/28 10:01:48;;;;;;;15.97;13.80;;;;;;;;;;5110560;28;20204;-77
2023/01/28 10:04:27;;;;;;;15.77;13.23;;;;;;;;;;5111563;28;20320;-77
2023/01/28 10:06:59;;;;;;;17.13;14.10;;;;;;;;;;5110812;27;20316;-78
2023/01/28 10:09:34;;;;;;;17.23;13.53;;;;;;;;;;5110659;27;20198;-77
2023/01/28 10:12:09;;;;;;;16.53;13.37;;;;;;;;;;5106640;27;20198;-76
2023/01/28 10:14:46;;;;;;;15.87;13.63;;;;;;;;;;5111884;28;20205;-77
2023/01/28 10:17:16;;;;;;;16.70;13.27;;;;;;;;;;5108602;28;20292;-77
2023/01/28 10:19:48;;;;;;;15.67;13.03;;;;;;;;;;5100022;28;20193;-78
2023/01/28 10:22:17;;;;;;;16.27;13.47;;;;;;;;;;5114746;27;20278;-76
2023/01/28 10:24:48;;;;;;;16.40;13.87;;;;;;;;;;5113303;28;20297;-77
2023/01/28 10:27:17;;;;;;;17.27;13.73;;;;;;;;;;5110281;28;20250;-77
2023/01/28 10:29:45;;;;;;;16.50;13.50;;;;;;;;;;5113396;27;20655;-77
2023/01/28 10:32:18;;;;;;;16.23;13.40;;;;;;;;;;5108048;28;20208;-77
2023/01/28 10:34:46;;;;;;;20.40;14.93;;;;;;;;;;5109607;27;20236;-77
2023/01/28 10:37:14;;;;;;;16.53;14.10;;;;;;;;;;5109737;28;20289;-79
2023/01/28 10:39:42;;;;;;;17.97;14.87;;;;;;;;;;5110315;28;20260;-80
2023/01/28 10:42:17;;;;;;;16.13;14.33;;;;;;;;;;5112724;28;20304;-78
2023/01/28 10:44:46;;;;;;;15.77;14.00;;;;;;;;;;5112993;27;20311;-77
2023/01/28 10:47:15;;;;;;;18.60;14.63;;;;;;;;;;5112302;28;20681;-78
2023/01/28 10:49:44;;;;;;;18.27;14.27;;;;;;;;;;5112711;28;20285;-78
2023/01/28 10:52:13;;;;;;;16.23;14.30;;;;;;;;;;5112439;28;20272;-78
2023/01/28 10:54:40;;;;;;;18.50;14.80;;;;;;;;;;5110187;28;20293;-77
2023/01/28 10:57:11;;;;;;;16.23;13.70;;;;;;;;;;5106831;28;20751;-77
2023/01/28 10:59:40;;;;;;;16.97;13.53;;;;;;;;;;5109587;28;20685;-77
2023/01/28 11:02:22;;;;;;;17.30;14.17;;;;;;;;;;5108583;28;20202;-77
2023/01/28 11:04:49;;;;;;;16.83;14.20;;;;;;;;;;5103997;28;20270;-77
2023/01/28 11:07:19;;;;;;;17.40;13.90;;;;;;;;;;5110673;28;20280;-78
2023/01/28 11:09:47;;;;;;;15.60;13.00;;;;;;;;;;5103262;28;20204;-78
2023/01/28 11:12:20;;;;;;;15.57;13.20;;;;;;;;;;5108795;28;20288;-77
2023/01/28 11:14:51;;;;;;;15.87;12.87;;;;;;;;;;5108989;27;20292;-77
2023/01/28 11:17:19;;;;;;;15.67;12.90;;;;;;;;;;5110970;28;20589;-76
2023/01/28 11:19:46;;;;;;;15.47;13.80;;;;;;;;;;5111756;28;20217;-76
2023/01/28 11:22:22;;;;;;;16.93;13.27;;;;;;;;;;5112083;28;20214;-76
2023/01/28 11:24:49;;;;;;;16.60;13.60;;;;;;;;;;5109454;28;20325;-76
2023/01/28 11:27:18;;;;;;;17.27;13.80;;;;;;;;;;5119111;27;20309;-77
2023/01/28 11:29:46;;;;;;;16.67;13.57;;;;;;;;;;5121126;27;20280;-76
2023/01/28 11:32:19;;;;;;;16.70;13.03;;;;;;;;;;5123157;27;20632;-77
2023/01/28 11:34:50;;;;;;;35.70;25.90;;;;;;;;;;5122799;27;20285;-77
2023/01/28 11:37:22;;;;;;;24.43;20.77;;;;;;;;;;5119269;27;20713;-78
2023/01/28 11:39:49;;;;;;;18.27;15.27;;;;;;;;;;5120988;27;20193;-78
2023/01/28 11:42:18;;;;;;;16.03;14.10;;;;;;;;;;5122918;27;20279;-77
2023/01/28 11:44:46;;;;;;;15.10;12.40;;;;;;;;;;5122174;27;20316;-79
2023/01/28 11:47:27;;;;;;;16.40;13.07;;;;;;;;;;5106895;27;20738;-78
2023/01/28 11:50:09;;;;;;;14.20;11.73;;;;;;;;;;5107214;28;20201;-78
2023/01/28 11:52:42;;;;;;;15.43;11.90;;;;;;;;;;5095259;28;20276;-78
2023/01/28 11:55:20;;;;;;;14.73;12.13;;;;;;;;;;5110883;28;20285;-77
2023/01/28 11:57:51;;;;;;;14.77;12.37;;;;;;;;;;5111529;28;20324;-77
2023/01/28 12:00:38;;;;;;;17.37;13.33;;;;;;;;;;5096184;28;20285;-78
2023/01/28 12:03:17;;;;;;;15.87;12.50;;;;;;;;;;5112331;28;20281;-77
2023/01/28 12:05:48;;;;;;;14.73;12.20;;;;;;;;;;5109564;28;20289;-78
2023/01/28 12:08:22;;;;;;;16.43;12.07;;;;;;;;;;5111446;28;20284;-77
2023/01/28 12:10:54;;;;;;;14.13;11.73;;;;;;;;;;5111799;28;20276;-78
2023/01/28 12:13:36;;;;;;;15.57;12.10;;;;;;;;;;5111462;28;20228;-78
2023/01/28 12:16:23;;;;;;;16.23;12.63;;;;;;;;;;5111523;28;20662;-77
2023/01/28 12:19:11;;;;;;;16.67;12.67;;;;;;;;;;5116095;28;20202;-79
2023/01/28 12:21:46;;;;;;;17.60;13.30;;;;;;;;;;5110367;27;20300;-78
2023/01/28 12:24:22;;;;;;;18.07;13.47;;;;;;;;;;5125304;27;20321;-77
2023/01/28 12:26:52;;;;;;;20.20;14.30;;;;;;;;;;5124750;27;20224;-78
2023/01/28 12:29:27;;;;;;;24.83;17.10;;;;;;;;;;5115407;27;20232;-77
2023/01/28 12:32:03;;;;;;;16.20;13.57;;;;;;;;;;5121648;27;20189;-78
2023/01/28 12:34:49;;;;;;;17.10;13.43;;;;;;;;;;5124823;27;20261;-78
2023/01/28 12:37:24;;;;;;;33.67;28.33;;;;;;;;;;5120687;27;20617;-77
2023/01/28 12:40:00;;;;;;;30.43;23.23;;;;;;;;;;5125140;27;20737;-78
2023/01/28 12:42:33;;;;;;;37.83;28.90;;;;;;;;;;5123901;27;20635;-77
2023/01/28 12:45:03;;;;;;;20.63;15.90;;;;;;;;;;5122459;27;20312;-77
2023/01/28 12:47:35;;;;;;;33.77;23.80;;;;;;;;;;5126901;27;20201;-79
2023/01/28 12:50:04;;;;;;;32.30;22.37;;;;;;;;;;5122549;27;20337;-76
2023/01/28 12:52:39;;;;;;;34.13;28.87;;;;;;;;;;5124247;27;20276;-78
2023/01/28 12:55:14;;;;;;;25.70;19.57;;;;;;;;;;5124163;27;20193;-78
2023/01/28 12:57:41;;;;;;;36.27;32.63;;;;;;;;;;5114561;27;20190;-77
2023/01/28 13:00:17;;;;;;;19.27;16.53;;;;;;;;;;5114766;27;20324;-77
2023/01/28 13:02:47;;;;;;;14.47;12.20;;;;;;;;;;5113318;27;20247;-77
2023/01/28 13:05:16;;;;;;;22.37;17.70;;;;;;;;;;5113114;28;20302;-76
2023/01/28 13:07:46;;;;;;;19.80;17.73;;;;;;;;;;5113671;28;20229;-76
2023/01/28 13:10:18;;;;;;;14.00;11.97;;;;;;;;;;5112335;28;20207;-76
2023/01/28 13:12:46;;;;;;;19.73;17.63;;;;;;;;;;5112670;28;20289;-77
2023/01/28 13:15:14;;;;;;;15.70;13.17;;;;;;;;;;5113592;28;20232;-76
2023/01/28 13:17:54;;;;;;;15.23;11.97;;;;;;;;;;5113640;28;20308;-76
2023/01/28 13:20:31;;;;;;;13.10;10.57;;;;;;;;;;5113087;28;21040;-76
2023/01/28 13:23:01;;;;;;;16.50;13.60;;;;;;;;;;5111826;28;20270;-77
2023/01/28 13:25:33;;;;;;;12.87;10.20;;;;;;;;;;5113093;28;20571;-77
2023/01/28 13:28:01;;;;;;;12.43;10.07;;;;;;;;;;5110221;28;20316;-76
2023/01/28 13:30:29;;;;;;;12.83;10.10;;;;;;;;;;5113079;28;20662;-75
2023/01/28 13:32:58;;;;;;;11.87;9.47;;;;;;;;;;5113246;28;20186;-75
2023/01/28 13:35:30;;;;;;;13.83;8.60;;;;;;;;;;5112683;28;20254;-76
2023/01/28 13:37:58;;;;;;;11.47;9.10;;;;;;;;;;5112439;28;20216;-77
2023/01/28 13:40:27;;;;;;;12.23;9.87;;;;;;;;;;5110098;28;20769;-78
2023/01/28 13:43:02;;;;;;;14.10;10.70;;;;;;;;;;5112940;28;20229;-75
2023/01/28 13:45:31;;;;;;;13.97;10.30;;;;;;;;;;5112942;28;20213;-75
2023/01/28 13:48:00;;;;;;;14.17;11.50;;;;;;;;;;5111556;28;20574;-76
2023/01/28 13:50:33;;;;;;;17.30;11.87;;;;;;;;;;5111529;28;20213;-76
2023/01/28 13:53:03;;;;;;;15.20;11.60;;;;;;;;;;5110460;28;20185;-76
2023/01/28 13:55:33;;;;;;;13.70;9.97;;;;;;;;;;5109573;28;20722;-75
2023/01/28 13:58:13;;;;;;;14.07;10.80;;;;;;;;;;5110318;28;20279;-77
2023/01/28 14:00:46;;;;;;;18.50;15.57;;;;;;;;;;5108491;28;20203;-77
2023/01/28 14:03:29;;;;;;;10.90;9.00;;;;;;;;;;5112325;28;20213;-76
2023/01/28 14:06:11;;;;;;;13.20;9.73;;;;;;;;;;5109281;28;20281;-76
2023/01/28 14:08:53;;;;;;;11.37;8.53;;;;;;;;;;5106847;28;20288;-77
2023/01/28 14:11:32;;;;;;;12.70;8.40;;;;;;;;;;5108710;28;20694;-76
2023/01/28 14:14:11;;;;;;;12.80;8.50;;;;;;;;;;5111444;28;20247;-74
2023/01/28 14:16:41;;;;;;;10.20;8.07;;;;;;;;;;5111151;28;20277;-75
2023/01/28 14:19:12;;;;;;;13.23;7.83;;;;;;;;;;5111141;28;20289;-76
2023/01/28 14:21:39;;;;;;;11.50;7.83;;;;;;;;;;5111807;28;20297;-77
2023/01/28 14:24:12;;;;;;;9.17;6.73;;;;;;;;;;5110647;28;20313;-76
2023/01/28 14:26:44;;;;;;;11.50;9.20;;;;;;;;;;5111327;28;20221;-77
2023/01/28 14:29:18;;;;;;;10.30;7.67;;;;;;;;;;5111345;28;20308;-76
2023/01/28 14:31:45;;;;;;;10.07;7.90;;;;;;;;;;5111565;28;20292;-78
2023/01/28 14:34:23;;;;;;;9.40;8.50;;;;;;;;;;5113493;28;20198;-78
2023/01/28 14:36:51;;;;;;;7.47;6.17;;;;;;;;;;5108152;28;20205;-78
2023/01/28 14:39:20;;;;;;;7.27;5.60;;;;;;;;;;5107435;27;20297;-79
2023/01/28 14:41:48;;;;;;;6.73;6.00;;;;;;;;;;5112518;28;20284;-78
2023/01/28 14:44:19;;;;;;;9.03;8.13;;;;;;;;;;5113360;28;20653;-78
2023/01/28 14:46:51;;;;;;;11.03;9.70;;;;;;;;;;5112294;28;20297;-77
2023/01/28 14:49:25;;;;;;;23.03;20.37;;;;;;;;;;5113239;28;20259;-77
2023/01/28 14:52:01;;;;;;;33.47;29.10;;;;;;;;;;5113353;28;20221;-78
2023/01/28 14:54:46;;;;;;;9.80;8.57;;;;;;;;;;5112898;28;20632;-77
2023/01/28 14:57:22;;;;;;;9.70;7.53;;;;;;;;;;5113601;28;20286;-77
2023/01/28 14:59:52;;;;;;;22.13;19.87;;;;;;;;;;5112847;28;20200;-77
2023/01/28 15:02:22;;;;;;;19.73;16.33;;;;;;;;;;5113212;28;20221;-77
2023/01/28 15:04:49;;;;;;;15.73;12.40;;;;;;;;;;5113091;28;20249;-77